createdAt,value
2019-03-20T00:00:09.657Z,0
2019-03-20T00:02:34.041Z,0
2019-03-20T00:03:46.244Z,0
2019-03-20T00:04:58.043Z,0
2019-03-20T00:09:47.224Z,0
2019-03-20T00:12:11.609Z,0
2019-03-20T00:14:36.000Z,0
2019-03-20T00:17:00.387Z,0
2019-03-20T00:18:12.581Z,0
2019-03-20T00:19:24.078Z,0
2019-03-20T00:21:49.172Z,0
2019-03-20T00:29:02.345Z,0
2019-03-20T00:31:26.073Z,0
2019-03-20T00:32:38.925Z,0
2019-03-20T00:33:51.121Z,0
2019-03-20T00:36:15.511Z,0
2019-03-20T00:38:39.905Z,0
2019-03-20T00:39:52.119Z,0
2019-03-20T00:41:04.029Z,0
2019-03-20T00:45:53.079Z,0
2019-03-20T00:47:05.275Z,0
2019-03-20T00:48:17.474Z,0
2019-03-20T00:50:41.863Z,0
2019-03-20T00:53:06.247Z,0
2019-03-20T00:55:30.642Z,0
2019-03-20T00:57:55.038Z,0
2019-03-20T01:00:19.420Z,0
2019-03-20T01:01:31.062Z,0
2019-03-20T01:02:43.816Z,0
2019-03-20T01:03:56.017Z,0
2019-03-20T01:05:08.208Z,0
2019-03-20T01:08:44.792Z,0
2019-03-20T01:09:56.984Z,0
2019-03-20T01:12:21.380Z,0
2019-03-20T01:14:45.769Z,0
2019-03-20T01:17:10.164Z,0
2019-03-20T01:19:34.549Z,0
2019-03-20T01:21:58.951Z,0
2019-03-20T01:23:11.142Z,0
2019-03-20T01:24:23.033Z,0
2019-03-20T01:26:47.728Z,0
2019-03-20T01:29:12.119Z,0
2019-03-20T01:30:24.031Z,0
2019-03-20T01:31:36.502Z,0
2019-03-20T01:34:00.894Z,0
2019-03-20T01:36:25.298Z,0
2019-03-20T01:37:37.482Z,0
2019-03-20T01:38:49.681Z,0
2019-03-20T01:41:14.075Z,0
2019-03-20T01:43:38.046Z,0
2019-03-20T01:44:50.663Z,0
2019-03-20T01:48:27.241Z,0
2019-03-20T01:50:51.063Z,0
2019-03-20T01:52:03.836Z,0
2019-03-20T01:53:16.028Z,0
2019-03-20T01:55:40.414Z,0
2019-03-20T01:58:04.826Z,0
2019-03-20T02:00:29.191Z,0
2019-03-20T02:02:53.587Z,0
2019-03-20T02:05:17.981Z,0
2019-03-20T02:06:30.177Z,0
2019-03-20T02:07:42.367Z,0
2019-03-20T02:10:06.771Z,0
2019-03-20T02:14:55.054Z,0
2019-03-20T02:17:19.935Z,0
2019-03-20T02:19:44.324Z,0
2019-03-20T02:20:56.051Z,0
2019-03-20T02:22:08.072Z,0
2019-03-20T02:24:33.106Z,0
2019-03-20T02:26:57.499Z,0
2019-03-20T02:28:09.070Z,0
2019-03-20T02:29:21.889Z,0
2019-03-20T02:31:46.002Z,0
2019-03-20T02:34:10.067Z,0
2019-03-20T02:35:22.087Z,0
2019-03-20T02:36:35.006Z,0
2019-03-20T02:38:59.468Z,0
2019-03-20T02:41:23.084Z,0
2019-03-20T02:42:36.047Z,0
2019-03-20T02:43:48.499Z,0
2019-03-20T02:46:12.628Z,0
2019-03-20T02:48:37.017Z,0
2019-03-20T02:49:49.410Z,0
2019-03-20T02:51:01.410Z,0
2019-03-20T02:53:25.803Z,0
2019-03-20T02:55:50.196Z,0
2019-03-20T02:57:02.387Z,0
2019-03-20T02:58:14.610Z,0
2019-03-20T02:59:26.780Z,0
2019-03-20T03:00:38.974Z,0
2019-03-20T03:03:03.036Z,0
2019-03-20T03:04:15.565Z,0
2019-03-20T03:05:27.076Z,0
2019-03-20T03:10:16.548Z,0
2019-03-20T03:11:28.749Z,0
2019-03-20T03:12:40.938Z,0
2019-03-20T03:15:05.324Z,0
2019-03-20T03:17:29.712Z,0
2019-03-20T03:18:41.911Z,0
2019-03-20T03:19:54.107Z,0
2019-03-20T03:22:18.050Z,0
2019-03-20T03:27:07.000Z,0
2019-03-20T03:28:19.476Z,0
2019-03-20T03:29:31.066Z,0
2019-03-20T03:31:56.066Z,0
2019-03-20T03:33:08.255Z,0
2019-03-20T03:35:32.655Z,0
2019-03-20T03:36:44.849Z,0
2019-03-20T03:39:09.232Z,0
2019-03-20T03:40:21.431Z,0
2019-03-20T03:41:33.628Z,0
2019-03-20T03:46:22.405Z,0
2019-03-20T03:51:11.019Z,0
2019-03-20T03:53:35.582Z,0
2019-03-20T03:54:47.783Z,0
2019-03-20T03:55:59.972Z,0
2019-03-20T03:58:24.358Z,0
2019-03-20T04:02:00.947Z,0
2019-03-20T04:03:13.144Z,0
2019-03-20T04:04:25.347Z,0
2019-03-20T04:08:01.936Z,0
2019-03-20T04:10:26.322Z,0
2019-03-20T04:12:50.714Z,0
2019-03-20T04:15:15.107Z,0
2019-03-20T04:16:27.311Z,0
2019-03-20T04:17:39.500Z,0
2019-03-20T04:22:28.274Z,0
2019-03-20T04:26:04.866Z,0
2019-03-20T04:27:17.058Z,0
2019-03-20T04:29:41.448Z,0
2019-03-20T04:30:53.649Z,0
2019-03-20T04:34:30.233Z,0
2019-03-20T04:36:54.629Z,0
2019-03-20T04:38:06.842Z,0
2019-03-20T04:40:31.219Z,0
2019-03-20T04:41:43.419Z,0
2019-03-20T04:45:19.996Z,0
2019-03-20T04:46:32.191Z,0
2019-03-20T04:48:56.579Z,0
2019-03-20T04:51:20.971Z,0
2019-03-20T04:52:33.198Z,0
2019-03-20T04:53:45.363Z,0
2019-03-20T04:58:34.150Z,0
2019-03-20T04:59:46.349Z,4
2019-03-20T05:00:58.549Z,0
2019-03-20T05:02:10.754Z,4
2019-03-20T05:03:22.932Z,8
2019-03-20T05:05:47.332Z,8
2019-03-20T05:06:59.518Z,8
2019-03-20T05:08:11.723Z,8
2019-03-20T05:09:23.914Z,8
2019-03-20T05:10:36.123Z,8
2019-03-20T05:13:00.505Z,16
2019-03-20T05:14:12.717Z,16
2019-03-20T05:15:24.904Z,16
2019-03-20T05:17:49.282Z,20
2019-03-20T05:20:13.669Z,20
2019-03-20T05:21:25.088Z,28
2019-03-20T05:23:50.268Z,32
2019-03-20T05:25:02.487Z,32
2019-03-20T05:27:26.000Z,36
2019-03-20T05:29:51.242Z,44
2019-03-20T05:31:03.440Z,44
2019-03-20T05:32:15.636Z,44
2019-03-20T05:34:40.027Z,52
2019-03-20T05:35:52.226Z,52
2019-03-20T05:37:04.042Z,52
2019-03-20T05:38:16.616Z,60
2019-03-20T05:39:28.807Z,60
2019-03-20T05:41:53.203Z,64
2019-03-20T05:44:17.616Z,68
2019-03-20T05:45:29.795Z,68
2019-03-20T05:50:18.566Z,80
2019-03-20T05:51:30.764Z,80
2019-03-20T05:53:55.154Z,84
2019-03-20T05:56:19.551Z,88
2019-03-20T05:57:31.753Z,88
2019-03-20T05:58:43.936Z,92
2019-03-20T05:59:56.141Z,92
2019-03-20T06:01:08.327Z,92
2019-03-20T06:03:32.719Z,96
2019-03-20T06:04:44.919Z,96
2019-03-20T06:05:57.110Z,100
2019-03-20T06:07:09.311Z,100
2019-03-20T06:08:21.509Z,104
2019-03-20T06:10:45.895Z,104
2019-03-20T06:11:58.009Z,104
2019-03-20T06:13:10.028Z,108
2019-03-20T06:14:22.478Z,104
2019-03-20T06:15:34.683Z,108
2019-03-20T06:17:59.079Z,108
2019-03-20T06:19:11.260Z,112
2019-03-20T06:20:23.461Z,112
2019-03-20T06:21:35.655Z,112
2019-03-20T06:22:47.008Z,112
2019-03-20T06:25:12.237Z,116
2019-03-20T06:26:24.432Z,116
2019-03-20T06:27:36.063Z,120
2019-03-20T06:28:48.082Z,120
2019-03-20T06:30:01.129Z,120
2019-03-20T06:33:37.611Z,120
2019-03-20T06:34:49.008Z,548
2019-03-20T06:36:02.007Z,548
2019-03-20T06:37:14.217Z,548
2019-03-20T06:39:38.590Z,544
2019-03-20T06:40:50.823Z,548
2019-03-20T06:42:02.987Z,556
2019-03-20T06:43:15.179Z,560
2019-03-20T06:45:39.582Z,556
2019-03-20T06:46:51.764Z,560
2019-03-20T06:48:03.970Z,560
2019-03-20T06:49:16.155Z,560
2019-03-20T06:50:28.355Z,564
2019-03-20T06:51:40.548Z,564
2019-03-20T06:52:52.745Z,564
2019-03-20T06:54:04.936Z,564
2019-03-20T06:55:17.134Z,568
2019-03-20T06:56:29.339Z,568
2019-03-20T06:58:53.729Z,568
2019-03-20T07:00:05.927Z,568
2019-03-20T07:01:18.109Z,572
2019-03-20T07:02:30.311Z,568
2019-03-20T07:03:42.050Z,572
2019-03-20T07:04:54.691Z,568
2019-03-20T07:06:06.892Z,568
2019-03-20T07:07:19.084Z,572
2019-03-20T07:08:31.028Z,572
2019-03-20T07:09:43.463Z,572
2019-03-20T07:12:07.859Z,572
2019-03-20T07:13:20.046Z,576
2019-03-20T07:14:32.024Z,576
2019-03-20T07:15:44.443Z,576
2019-03-20T07:16:56.625Z,576
2019-03-20T07:18:08.816Z,576
2019-03-20T07:19:21.018Z,576
2019-03-20T07:20:33.208Z,580
2019-03-20T07:21:45.407Z,580
2019-03-20T07:22:57.597Z,580
2019-03-20T07:25:21.980Z,580
2019-03-20T07:26:34.175Z,584
2019-03-20T07:27:46.363Z,584
2019-03-20T07:30:10.771Z,584
2019-03-20T07:31:22.949Z,584
2019-03-20T07:32:35.147Z,584
2019-03-20T07:33:47.344Z,588
2019-03-20T07:34:59.053Z,588
2019-03-20T07:36:11.730Z,584
2019-03-20T07:37:23.923Z,588
2019-03-20T07:38:36.110Z,588
2019-03-20T07:39:48.307Z,588
2019-03-20T07:41:00.495Z,588
2019-03-20T07:42:12.701Z,592
2019-03-20T07:43:24.889Z,592
2019-03-20T07:45:49.388Z,588
2019-03-20T07:47:01.474Z,592
2019-03-20T07:48:13.066Z,592
2019-03-20T07:49:25.085Z,592
2019-03-20T07:50:38.052Z,592
2019-03-20T07:51:50.023Z,596
2019-03-20T07:53:02.448Z,596
2019-03-20T07:54:14.626Z,596
2019-03-20T07:55:26.824Z,600
2019-03-20T07:56:39.038Z,600
2019-03-20T07:57:51.216Z,600
2019-03-20T07:59:03.397Z,608
2019-03-20T08:00:15.005Z,608
2019-03-20T08:01:27.794Z,612
2019-03-20T08:02:39.984Z,616
2019-03-20T08:03:52.000Z,620
2019-03-20T08:05:04.370Z,620
2019-03-20T08:07:28.787Z,632
2019-03-20T08:09:53.148Z,640
2019-03-20T08:12:17.533Z,648
2019-03-20T08:13:29.730Z,644
2019-03-20T08:14:41.925Z,636
2019-03-20T08:15:54.119Z,632
2019-03-20T08:17:06.031Z,624
2019-03-20T08:18:18.050Z,620
2019-03-20T08:20:42.894Z,620
2019-03-20T08:21:55.086Z,616
2019-03-20T08:23:07.279Z,612
2019-03-20T08:24:19.047Z,612
2019-03-20T08:25:31.665Z,596
2019-03-20T08:26:43.857Z,604
2019-03-20T08:27:56.073Z,608
2019-03-20T08:29:08.242Z,608
2019-03-20T08:30:20.440Z,608
2019-03-20T08:31:32.634Z,612
2019-03-20T08:33:57.019Z,604
2019-03-20T08:35:09.209Z,616
2019-03-20T08:36:21.479Z,608
2019-03-20T08:37:33.607Z,588
2019-03-20T08:38:45.796Z,592
2019-03-20T08:39:57.990Z,600
2019-03-20T08:41:10.183Z,616
2019-03-20T08:42:22.382Z,608
2019-03-20T08:43:34.567Z,616
2019-03-20T08:45:58.962Z,616
2019-03-20T08:47:11.145Z,620
2019-03-20T08:49:38.017Z,620
2019-03-20T08:50:47.730Z,624
2019-03-20T08:51:59.922Z,628
2019-03-20T08:53:12.126Z,624
2019-03-20T08:54:24.031Z,620
2019-03-20T08:55:36.050Z,620
2019-03-20T08:56:48.700Z,620
2019-03-20T08:58:00.089Z,616
2019-03-20T09:00:25.028Z,620
2019-03-20T09:01:37.470Z,620
2019-03-20T09:02:49.668Z,616
2019-03-20T09:04:01.863Z,616
2019-03-20T09:05:14.054Z,616
2019-03-20T09:06:26.246Z,612
2019-03-20T09:07:38.436Z,616
2019-03-20T09:08:50.754Z,612
2019-03-20T09:10:02.833Z,616
2019-03-20T09:11:15.017Z,612
2019-03-20T09:12:27.219Z,616
2019-03-20T09:13:39.407Z,616
2019-03-20T09:14:51.606Z,620
2019-03-20T09:16:03.796Z,624
2019-03-20T09:17:15.997Z,624
2019-03-20T09:18:28.186Z,624
2019-03-20T09:19:40.038Z,628
2019-03-20T09:20:52.578Z,628
2019-03-20T09:22:04.763Z,628
2019-03-20T09:23:17.004Z,632
2019-03-20T09:24:29.153Z,632
2019-03-20T09:25:41.034Z,632
2019-03-20T09:26:53.053Z,632
2019-03-20T09:28:05.731Z,632
2019-03-20T09:30:30.011Z,636
2019-03-20T09:31:42.441Z,636
2019-03-20T09:32:54.051Z,636
2019-03-20T09:34:06.705Z,640
2019-03-20T09:35:18.898Z,640
2019-03-20T09:36:31.089Z,640
2019-03-20T09:37:43.282Z,640
2019-03-20T09:38:55.471Z,644
2019-03-20T09:40:07.067Z,644
2019-03-20T09:41:19.876Z,648
2019-03-20T09:42:32.063Z,648
2019-03-20T09:43:44.257Z,652
2019-03-20T09:44:56.448Z,652
2019-03-20T09:46:08.639Z,656
2019-03-20T09:47:20.838Z,660
2019-03-20T09:48:33.003Z,664
2019-03-20T09:49:45.222Z,668
2019-03-20T09:50:57.041Z,676
2019-03-20T09:52:09.611Z,684
2019-03-20T09:53:21.805Z,692
2019-03-20T09:54:33.997Z,692
2019-03-20T09:55:46.189Z,684
2019-03-20T09:56:58.385Z,684
2019-03-20T09:58:10.580Z,684
2019-03-20T09:59:22.765Z,692
2019-03-20T10:00:34.976Z,696
2019-03-20T10:01:47.153Z,688
2019-03-20T10:02:59.351Z,696
2019-03-20T10:04:11.539Z,696
2019-03-20T10:05:23.732Z,692
2019-03-20T10:06:35.934Z,692
2019-03-20T10:09:00.032Z,684
2019-03-20T10:10:12.508Z,676
2019-03-20T10:11:24.699Z,660
2019-03-20T10:12:36.902Z,648
2019-03-20T10:13:49.098Z,640
2019-03-20T10:15:01.296Z,636
2019-03-20T10:16:13.480Z,628
2019-03-20T10:17:25.692Z,624
2019-03-20T10:18:37.087Z,616
2019-03-20T10:19:50.060Z,632
2019-03-20T10:21:02.327Z,644
2019-03-20T10:22:14.446Z,644
2019-03-20T10:23:26.064Z,656
2019-03-20T10:24:38.829Z,664
2019-03-20T10:25:51.027Z,668
2019-03-20T10:27:03.220Z,672
2019-03-20T10:28:15.420Z,672
2019-03-20T10:29:27.614Z,676
2019-03-20T10:30:39.811Z,676
2019-03-20T10:31:51.997Z,676
2019-03-20T10:33:04.192Z,676
2019-03-20T10:35:28.579Z,680
2019-03-20T10:36:40.790Z,684
2019-03-20T10:37:52.962Z,688
2019-03-20T10:39:05.160Z,688
2019-03-20T10:40:17.355Z,692
2019-03-20T10:41:29.543Z,696
2019-03-20T10:42:41.741Z,708
2019-03-20T10:47:06.054Z,712
2019-03-20T10:47:30.517Z,712
2019-03-20T10:48:42.706Z,716
2019-03-20T10:49:54.899Z,724
2019-03-20T10:51:07.094Z,728
2019-03-20T10:52:19.286Z,740
2019-03-20T10:53:31.482Z,744
2019-03-20T10:54:43.697Z,752
2019-03-20T10:55:55.869Z,764
2019-03-20T10:57:08.006Z,772
2019-03-20T10:58:20.262Z,780
2019-03-20T10:59:32.458Z,784
2019-03-20T11:00:44.064Z,780
2019-03-20T11:01:56.839Z,824
2019-03-20T11:03:09.036Z,836
2019-03-20T11:04:21.226Z,852
2019-03-20T11:05:33.426Z,864
2019-03-20T11:06:45.616Z,876
2019-03-20T11:07:57.808Z,884
2019-03-20T11:09:09.997Z,880
2019-03-20T11:10:22.196Z,868
2019-03-20T11:11:34.383Z,800
2019-03-20T11:12:46.591Z,796
2019-03-20T11:13:58.773Z,848
2019-03-20T11:15:10.973Z,932
2019-03-20T11:16:23.158Z,936
2019-03-20T11:17:35.369Z,940
2019-03-20T11:18:47.549Z,956
2019-03-20T11:19:59.748Z,904
2019-03-20T11:21:11.934Z,940
2019-03-20T11:22:24.126Z,968
2019-03-20T11:23:36.336Z,936
2019-03-20T11:24:48.524Z,920
2019-03-20T11:26:00.712Z,880
2019-03-20T11:28:25.104Z,812
2019-03-20T11:29:37.295Z,816
2019-03-20T11:30:49.486Z,792
2019-03-20T11:32:01.006Z,780
2019-03-20T11:33:13.087Z,776
2019-03-20T11:34:26.067Z,776
2019-03-20T11:35:38.265Z,792
2019-03-20T11:36:50.454Z,832
2019-03-20T11:38:02.646Z,844
2019-03-20T11:39:14.840Z,864
2019-03-20T11:40:27.187Z,884
2019-03-20T11:41:03.000Z,764
2019-03-20T11:41:39.232Z,908
2019-03-20T11:42:51.427Z,900
2019-03-20T11:44:03.618Z,888
2019-03-20T11:45:15.844Z,896
2019-03-20T11:46:28.004Z,864
2019-03-20T11:47:40.196Z,864
2019-03-20T11:48:52.387Z,876
2019-03-20T11:50:04.583Z,912
2019-03-20T11:51:16.786Z,948
2019-03-20T11:52:28.967Z,964
2019-03-20T11:53:41.167Z,996
2019-03-20T11:54:53.378Z,1008
2019-03-20T11:56:05.561Z,1000
2019-03-20T11:57:17.751Z,1024
2019-03-20T11:58:29.939Z,980
2019-03-20T11:59:42.151Z,976
2019-03-20T12:00:54.032Z,996
2019-03-20T12:02:06.523Z,984
2019-03-20T12:03:18.714Z,968
2019-03-20T12:04:30.912Z,956
2019-03-20T12:05:43.104Z,524
2019-03-20T12:08:07.488Z,512
2019-03-20T12:09:19.679Z,520
2019-03-20T12:10:31.878Z,540
2019-03-20T12:11:44.068Z,580
2019-03-20T12:12:56.264Z,596
2019-03-20T12:14:08.463Z,588
2019-03-20T12:15:20.065Z,596
2019-03-20T12:16:32.847Z,592
2019-03-20T12:17:45.035Z,596
2019-03-20T12:18:57.224Z,608
2019-03-20T12:20:09.433Z,616
2019-03-20T12:21:21.622Z,624
2019-03-20T12:22:33.810Z,612
2019-03-20T12:23:46.010Z,612
2019-03-20T12:24:58.226Z,616
2019-03-20T12:26:10.396Z,628
2019-03-20T12:27:22.059Z,648
2019-03-20T12:28:34.783Z,664
2019-03-20T12:29:46.972Z,688
2019-03-20T12:30:59.182Z,648
2019-03-20T12:32:11.375Z,644
2019-03-20T12:33:23.554Z,680
2019-03-20T12:34:35.748Z,732
2019-03-20T12:35:47.936Z,752
2019-03-20T12:37:00.164Z,752
2019-03-20T12:38:12.327Z,744
2019-03-20T12:39:24.610Z,748
2019-03-20T12:40:36.723Z,744
2019-03-20T12:41:48.090Z,756
2019-03-20T12:43:01.101Z,768
2019-03-20T12:44:13.291Z,776
2019-03-20T12:45:25.050Z,788
2019-03-20T12:46:37.686Z,856
2019-03-20T12:47:49.886Z,864
2019-03-20T12:49:02.090Z,908
2019-03-20T12:50:14.279Z,936
2019-03-20T12:51:26.707Z,840
2019-03-20T12:53:50.847Z,784
2019-03-20T12:55:03.042Z,796
2019-03-20T12:56:15.263Z,784
2019-03-20T12:57:27.427Z,728
2019-03-20T12:58:39.624Z,748
2019-03-20T12:59:51.819Z,712
2019-03-20T13:01:04.006Z,696
2019-03-20T13:02:16.209Z,716
2019-03-20T13:03:28.396Z,700
2019-03-20T13:04:40.592Z,740
2019-03-20T13:05:52.777Z,840
2019-03-20T13:07:04.984Z,740
2019-03-20T13:08:17.170Z,620
2019-03-20T13:10:41.556Z,696
2019-03-20T13:11:53.747Z,792
2019-03-20T13:13:05.946Z,800
2019-03-20T13:14:18.136Z,932
2019-03-20T13:15:30.341Z,676
2019-03-20T13:16:42.527Z,752
2019-03-20T13:17:54.715Z,584
2019-03-20T13:19:06.916Z,684
2019-03-20T13:20:19.100Z,920
2019-03-20T13:21:31.299Z,968
2019-03-20T13:22:43.502Z,856
2019-03-20T13:23:55.685Z,780
2019-03-20T13:25:07.876Z,684
2019-03-20T13:26:20.075Z,684
2019-03-20T13:27:32.027Z,812
2019-03-20T13:28:44.454Z,856
2019-03-20T13:29:56.660Z,852
2019-03-20T13:31:08.844Z,1240
2019-03-20T13:32:21.043Z,1192
2019-03-20T13:33:33.234Z,1140
2019-03-20T13:34:45.431Z,1216
2019-03-20T13:35:57.625Z,1156
2019-03-20T13:37:09.816Z,1092
2019-03-20T13:38:22.010Z,852
2019-03-20T13:39:34.197Z,1068
2019-03-20T13:40:46.399Z,1116
2019-03-20T13:41:58.644Z,1108
2019-03-20T13:43:10.783Z,1172
2019-03-20T13:44:22.989Z,1296
2019-03-20T13:45:35.177Z,1344
2019-03-20T13:46:47.367Z,1384
2019-03-20T13:47:59.617Z,1404
2019-03-20T13:49:11.751Z,1360
2019-03-20T13:50:23.000Z,1408
2019-03-20T13:51:36.141Z,1488
2019-03-20T13:52:48.331Z,1456
2019-03-20T13:54:00.526Z,832
2019-03-20T13:55:12.777Z,660
2019-03-20T13:56:24.916Z,892
2019-03-20T13:57:37.103Z,944
2019-03-20T13:58:49.029Z,1236
2019-03-20T14:00:01.497Z,1804
2019-03-20T14:01:13.690Z,2112
2019-03-20T14:02:25.877Z,2124
2019-03-20T14:03:38.074Z,2188
2019-03-20T14:04:50.269Z,2292
2019-03-20T14:06:02.463Z,2500
2019-03-20T14:07:14.657Z,2704
2019-03-20T14:08:26.844Z,2860
2019-03-20T14:09:39.037Z,2704
2019-03-20T14:10:51.367Z,3292
2019-03-20T14:12:03.438Z,2540
2019-03-20T14:13:15.692Z,1380
2019-03-20T14:14:27.819Z,3620
2019-03-20T14:15:40.001Z,2696
2019-03-20T14:16:52.209Z,4140
2019-03-20T14:18:04.040Z,4332
2019-03-20T14:19:16.595Z,5308
2019-03-20T14:20:28.783Z,5564
2019-03-20T14:22:53.168Z,1972
2019-03-20T14:24:05.370Z,12224
2019-03-20T14:25:17.570Z,15872
2019-03-20T14:26:29.783Z,1472
2019-03-20T14:27:41.950Z,10448
2019-03-20T14:28:54.141Z,6060
2019-03-20T14:30:06.340Z,1352
2019-03-20T14:31:18.527Z,792
2019-03-20T14:32:30.721Z,748
2019-03-20T14:34:55.106Z,672
2019-03-20T14:36:07.301Z,984
2019-03-20T14:37:19.500Z,1156
2019-03-20T14:38:31.693Z,744
2019-03-20T14:39:43.892Z,916
2019-03-20T14:40:56.083Z,1060
2019-03-20T14:42:08.268Z,808
2019-03-20T14:43:20.467Z,820
2019-03-20T14:44:32.065Z,1000
2019-03-20T14:45:44.856Z,928
2019-03-20T14:46:57.066Z,952
2019-03-20T14:48:09.242Z,744
2019-03-20T14:49:21.438Z,640
2019-03-20T14:50:33.626Z,704
2019-03-20T14:51:45.828Z,648
2019-03-20T14:52:58.017Z,796
2019-03-20T14:54:10.209Z,1200
2019-03-20T14:55:22.404Z,2008
2019-03-20T14:57:46.790Z,1008
2019-03-20T14:58:58.993Z,936
2019-03-20T15:00:11.205Z,804
2019-03-20T15:01:23.376Z,720
2019-03-20T15:02:35.567Z,680
2019-03-20T15:03:47.075Z,564
2019-03-20T15:04:59.958Z,500
2019-03-20T15:06:12.153Z,500
2019-03-20T15:07:24.339Z,468
2019-03-20T15:08:36.547Z,360
2019-03-20T15:09:48.731Z,320
2019-03-20T15:11:00.092Z,280
2019-03-20T15:12:13.124Z,240
2019-03-20T15:13:25.317Z,212
2019-03-20T15:14:37.502Z,208
2019-03-20T15:15:49.697Z,204
2019-03-20T15:17:01.008Z,216
2019-03-20T15:18:14.087Z,212
2019-03-20T15:19:26.280Z,212
2019-03-20T15:20:38.472Z,220
2019-03-20T15:21:50.664Z,200
2019-03-20T15:23:02.866Z,180
2019-03-20T15:24:15.065Z,184
2019-03-20T15:25:27.246Z,192
2019-03-20T15:26:39.441Z,196
2019-03-20T15:27:51.633Z,204
2019-03-20T15:29:03.834Z,216
2019-03-20T15:30:16.022Z,216
2019-03-20T15:31:28.213Z,220
2019-03-20T15:32:40.410Z,224
2019-03-20T15:33:52.601Z,224
2019-03-20T15:35:04.813Z,224
2019-03-20T15:36:17.002Z,216
2019-03-20T15:37:29.181Z,228
2019-03-20T15:38:41.376Z,248
2019-03-20T15:39:53.605Z,280
2019-03-20T15:41:05.766Z,308
2019-03-20T15:42:17.962Z,300
2019-03-20T15:57:27.230Z,120
2019-03-20T15:58:39.426Z,116
2019-03-20T16:01:03.814Z,124
2019-03-20T16:02:16.010Z,116
2019-03-20T16:03:28.021Z,120
2019-03-20T16:04:40.551Z,128
2019-03-20T16:05:52.073Z,140
2019-03-20T16:07:04.929Z,152
2019-03-20T16:08:17.131Z,176
2019-03-20T16:09:29.031Z,176
2019-03-20T16:10:41.514Z,168
2019-03-20T16:11:53.710Z,164
2019-03-20T16:13:05.908Z,140
2019-03-20T16:14:18.096Z,128
2019-03-20T16:15:30.291Z,128
2019-03-20T16:16:42.507Z,120
2019-03-20T16:17:54.690Z,112
2019-03-20T16:19:06.087Z,104
2019-03-20T16:20:19.067Z,96
2019-03-20T16:21:31.264Z,92
2019-03-20T16:23:55.658Z,92
2019-03-20T16:25:07.847Z,92
2019-03-20T16:26:20.043Z,88
2019-03-20T16:27:32.236Z,88
2019-03-20T16:28:44.437Z,80
2019-03-20T16:29:56.632Z,76
2019-03-20T16:31:08.826Z,76
2019-03-20T16:32:21.031Z,72
2019-03-20T16:33:33.218Z,72
2019-03-20T16:34:45.409Z,68
2019-03-20T16:35:57.618Z,72
2019-03-20T16:38:21.997Z,56
2019-03-20T16:39:34.195Z,56
2019-03-20T16:40:46.387Z,52
2019-03-20T16:41:58.580Z,48
2019-03-20T16:43:10.780Z,44
2019-03-20T16:45:35.173Z,32
2019-03-20T16:46:47.364Z,32
2019-03-20T16:47:59.005Z,28
2019-03-20T16:49:11.752Z,24
2019-03-20T16:50:23.948Z,24
2019-03-20T16:51:36.147Z,20
2019-03-20T16:52:48.033Z,16
2019-03-20T16:54:00.557Z,16
2019-03-20T16:55:12.007Z,16
2019-03-20T16:56:24.924Z,16
2019-03-20T16:57:37.012Z,20
2019-03-20T16:58:49.325Z,16
2019-03-20T17:01:13.705Z,16
2019-03-20T17:02:25.898Z,16
2019-03-20T17:03:38.090Z,12
2019-03-20T17:04:50.028Z,8
2019-03-20T17:06:02.492Z,8
2019-03-20T17:07:14.681Z,8
2019-03-20T17:08:26.877Z,8
2019-03-20T17:09:39.069Z,8
2019-03-20T17:10:51.267Z,4
2019-03-20T17:12:03.464Z,4
2019-03-20T17:13:15.650Z,4
2019-03-20T17:14:27.854Z,4
2019-03-20T17:15:40.063Z,4
2019-03-20T17:16:52.250Z,0
2019-03-20T17:18:04.445Z,4
2019-03-20T17:19:16.636Z,4
2019-03-20T17:20:28.828Z,4
2019-03-20T17:21:41.018Z,0
2019-03-20T17:22:53.217Z,0
2019-03-20T17:24:05.041Z,0
2019-03-20T17:25:17.629Z,0
2019-03-20T17:26:29.810Z,0
2019-03-20T17:27:41.996Z,0
2019-03-20T17:28:54.196Z,0
2019-03-20T17:30:06.392Z,0
2019-03-20T17:31:18.585Z,0
2019-03-20T17:32:30.778Z,0
2019-03-20T17:33:42.975Z,0
2019-03-20T17:34:55.268Z,0
2019-03-20T17:36:07.368Z,0
2019-03-20T17:37:19.057Z,0
2019-03-20T17:38:31.076Z,0
2019-03-20T17:39:43.971Z,0
2019-03-20T17:40:56.140Z,0
2019-03-20T17:42:08.346Z,0
2019-03-20T17:43:20.538Z,0
2019-03-20T17:44:32.737Z,0
2019-03-20T17:45:44.927Z,0
2019-03-20T17:46:57.117Z,0
2019-03-20T17:48:09.324Z,0
2019-03-20T17:49:21.511Z,0
2019-03-20T17:50:33.706Z,0
2019-03-20T17:51:45.900Z,0
2019-03-20T17:52:58.100Z,0
2019-03-20T17:54:10.291Z,0
2019-03-20T17:55:22.489Z,0
2019-03-20T17:56:34.068Z,0
2019-03-20T17:57:46.874Z,0
2019-03-20T17:58:59.077Z,0
2019-03-20T18:00:11.265Z,0
2019-03-20T18:01:23.466Z,0
2019-03-20T18:02:35.660Z,0
2019-03-20T18:03:47.854Z,0
2019-03-20T18:05:00.005Z,0
2019-03-20T18:06:12.258Z,0
2019-03-20T18:07:24.442Z,0
2019-03-20T18:08:36.631Z,0
2019-03-20T18:09:48.008Z,0
2019-03-20T18:11:01.039Z,0
2019-03-20T18:12:13.229Z,0
2019-03-20T18:14:37.615Z,0
2019-03-20T18:15:49.830Z,0
2019-03-20T18:17:02.006Z,0
2019-03-20T18:18:14.020Z,0
2019-03-20T18:19:26.390Z,0
2019-03-20T18:20:38.595Z,0
2019-03-20T18:21:50.791Z,0
2019-03-20T18:23:02.984Z,0
2019-03-20T18:24:15.178Z,0
2019-03-20T18:25:27.371Z,0
2019-03-20T18:26:39.574Z,0
2019-03-20T18:27:51.765Z,0
2019-03-20T18:29:03.953Z,0
2019-03-20T18:30:16.151Z,0
2019-03-20T18:31:28.034Z,0
2019-03-20T18:32:40.551Z,0
2019-03-20T18:33:52.743Z,0
2019-03-20T18:35:04.931Z,0
2019-03-20T18:36:17.129Z,0
2019-03-20T18:37:29.032Z,0
2019-03-20T18:38:41.522Z,0
2019-03-20T18:39:53.718Z,0
2019-03-20T18:41:05.916Z,0
2019-03-20T18:42:18.106Z,0
2019-03-20T18:43:30.304Z,0
2019-03-20T18:44:42.492Z,0
2019-03-20T18:45:54.694Z,0
2019-03-20T18:47:06.000Z,0
2019-03-20T18:48:19.080Z,0
2019-03-20T18:49:31.343Z,0
2019-03-20T18:50:43.469Z,0
2019-03-20T18:51:55.663Z,0
2019-03-20T18:53:07.862Z,0
2019-03-20T18:54:20.058Z,0
2019-03-20T18:55:32.254Z,0
2019-03-20T18:56:44.453Z,0
2019-03-20T18:57:56.643Z,0
2019-03-20T18:59:08.835Z,0
2019-03-20T19:00:21.033Z,0
2019-03-20T19:01:33.235Z,0
2019-03-20T19:02:45.042Z,0
2019-03-20T19:03:57.638Z,0
2019-03-20T19:05:09.819Z,0
2019-03-20T19:06:22.009Z,0
2019-03-20T19:07:34.216Z,0
2019-03-20T19:08:46.406Z,0
2019-03-20T19:09:58.607Z,0
2019-03-20T19:11:10.794Z,0
2019-03-20T19:12:22.992Z,0
2019-03-20T19:13:35.185Z,0
2019-03-20T19:14:47.379Z,0
2019-03-20T19:15:59.579Z,0
2019-03-20T19:17:11.781Z,0
2019-03-20T19:18:23.965Z,0
2019-03-20T19:19:36.161Z,0
2019-03-20T19:20:48.365Z,0
2019-03-20T19:22:00.548Z,0
2019-03-20T19:23:12.741Z,0
2019-03-20T19:24:24.937Z,0
2019-03-20T19:25:37.141Z,0
2019-03-20T19:26:49.335Z,0
2019-03-20T19:28:01.526Z,0
2019-03-20T19:29:13.727Z,0
2019-03-20T19:30:25.925Z,0
2019-03-20T19:31:38.129Z,0
2019-03-20T19:32:50.308Z,0
2019-03-20T19:34:02.513Z,0
2019-03-20T19:35:14.070Z,0
2019-03-20T19:37:39.092Z,0
2019-03-20T19:38:51.285Z,0
2019-03-20T19:40:03.048Z,0
2019-03-20T19:41:15.675Z,0
2019-03-20T19:42:27.871Z,0
2019-03-20T19:43:40.007Z,0
2019-03-20T19:44:52.257Z,0
2019-03-20T19:46:04.460Z,0
2019-03-20T19:47:16.659Z,0
2019-03-20T19:49:41.045Z,0
2019-03-20T19:50:53.255Z,0
2019-03-20T19:52:05.430Z,0
2019-03-20T19:53:17.658Z,0
2019-03-20T19:54:29.831Z,0
2019-03-20T19:55:42.022Z,0
2019-03-20T19:56:54.216Z,0
2019-03-20T19:58:06.404Z,0
2019-03-20T19:59:18.603Z,0
2019-03-20T20:00:30.833Z,0
2019-03-20T20:01:42.995Z,0
2019-03-20T20:02:55.197Z,0
2019-03-20T20:04:07.381Z,0
2019-03-20T20:05:19.579Z,0
2019-03-20T20:06:31.780Z,0
2019-03-20T20:07:43.982Z,0
2019-03-20T20:08:56.166Z,0
2019-03-20T20:10:08.373Z,0
2019-03-20T20:11:20.563Z,0
2019-03-20T20:12:32.757Z,0
2019-03-20T20:13:44.953Z,0
2019-03-20T20:14:57.014Z,0
2019-03-20T20:16:09.335Z,0
2019-03-20T20:17:21.537Z,0
2019-03-20T20:18:33.736Z,0
2019-03-20T20:19:45.929Z,0
2019-03-20T20:20:58.123Z,0
2019-03-20T20:22:10.317Z,0
2019-03-20T20:23:22.512Z,0
2019-03-20T20:24:34.724Z,0
2019-03-20T20:25:46.910Z,0
2019-03-20T20:26:59.097Z,0
2019-03-20T20:28:11.290Z,0